createdAt,value
2018-12-11T00:00:23.570Z,85.00
2018-12-11T00:02:58.047Z,86.20
2018-12-11T00:05:32.306Z,87.00
2018-12-11T00:08:04.181Z,86.20
2018-12-11T00:10:39.301Z,86.20
2018-12-11T00:13:14.523Z,88.00
2018-12-11T00:15:47.720Z,88.00
2018-12-11T00:18:21.874Z,87.60
2018-12-11T00:20:55.796Z,85.80
2018-12-11T00:23:29.918Z,87.60
2018-12-11T00:26:04.294Z,90.00
2018-12-11T00:39:18.130Z,87.00
2018-12-11T00:41:52.199Z,86.20
2018-12-11T00:47:12.447Z,88.40
2018-12-11T00:49:48.188Z,86.60
2018-12-11T00:52:24.796Z,85.80
2018-12-11T00:55:04.732Z,85.40
2018-12-11T00:57:41.068Z,86.60
2018-12-11T01:00:15.915Z,88.80
2018-12-11T01:02:52.379Z,87.40
2018-12-11T01:05:32.022Z,87.00
2018-12-11T01:08:06.420Z,87.80
2018-12-11T01:10:40.568Z,87.20
2018-12-11T01:13:15.408Z,84.40
2018-12-11T01:15:52.261Z,87.00
2018-12-11T01:18:25.332Z,85.80
2018-12-11T01:21:00.707Z,84.20
2018-12-11T01:23:36.512Z,85.20
2018-12-11T01:26:08.350Z,83.60
2018-12-11T01:28:43.680Z,85.00
2018-12-11T01:42:33.018Z,82.40
2018-12-11T01:45:08.837Z,84.80
2018-12-11T01:47:44.387Z,85.00
2018-12-11T01:50:19.133Z,84.80
2018-12-11T01:55:39.578Z,85.80
2018-12-11T01:58:14.463Z,84.80
2018-12-11T02:00:46.733Z,86.20
2018-12-11T02:03:21.812Z,87.40
2018-12-11T02:05:58.823Z,84.20
2018-12-11T02:08:34.786Z,89.60
2018-12-11T02:14:00.339Z,85.00
2018-12-11T02:19:21.259Z,84.40
2018-12-11T02:54:37.793Z,84.80
2018-12-11T02:57:13.040Z,83.60
2018-12-11T02:59:44.893Z,84.20
2018-12-11T03:02:18.837Z,85.00
2018-12-11T03:04:52.813Z,82.80
2018-12-11T03:07:24.737Z,81.00
2018-12-11T03:09:58.590Z,82.40
2018-12-11T03:12:36.643Z,82.20
2018-12-11T03:15:18.704Z,87.00
2018-12-11T03:20:52.858Z,84.40
2018-12-11T03:26:11.684Z,85.80
2018-12-11T03:28:46.756Z,84.20
2018-12-11T03:31:18.982Z,84.20
2018-12-11T03:36:44.609Z,83.60
2018-12-11T03:39:16.250Z,84.00
2018-12-11T03:41:50.806Z,82.40
2018-12-11T03:44:25.948Z,85.00
2018-12-11T03:47:01.693Z,82.40
2018-12-11T03:49:37.129Z,84.00
2018-12-11T03:52:13.514Z,84.00
2018-12-11T03:54:48.460Z,82.00
2018-12-11T03:57:27.520Z,85.00
2018-12-11T04:00:06.595Z,87.00
2018-12-11T04:02:44.217Z,85.80
2018-12-11T04:05:19.618Z,86.20
2018-12-11T04:07:54.810Z,85.00
2018-12-11T04:10:30.109Z,85.40
2018-12-11T04:13:05.893Z,84.80
2018-12-11T04:15:43.761Z,81.60
2018-12-11T04:18:23.292Z,85.40
2018-12-11T04:20:57.361Z,84.00
2018-12-11T04:23:31.427Z,84.20
2018-12-11T04:26:06.973Z,84.00
2018-12-11T04:28:41.392Z,83.20
2018-12-11T04:31:15.270Z,84.80
2018-12-11T04:33:51.072Z,84.40
2018-12-11T04:36:27.291Z,84.80
2018-12-11T04:39:07.246Z,83.80
2018-12-11T04:41:57.278Z,82.80
2018-12-11T04:44:44.927Z,84.20
2018-12-11T04:56:03.361Z,85.20
2018-12-11T04:58:37.620Z,87.80
2018-12-11T05:01:11.974Z,85.00
2018-12-11T05:03:40.477Z,84.00
2018-12-11T05:06:10.966Z,83.80
2018-12-11T05:11:36.859Z,86.20
2018-12-11T05:14:05.959Z,84.00
2018-12-11T05:16:36.401Z,84.80
2018-12-11T05:19:04.835Z,84.80
2018-12-11T05:21:33.215Z,84.40
2018-12-11T05:24:02.579Z,85.60
2018-12-11T05:26:32.023Z,84.60
2018-12-11T05:29:04.188Z,88.80
2018-12-11T05:31:36.291Z,86.60
2018-12-11T05:34:04.748Z,84.60
2018-12-11T05:36:34.551Z,86.60
2018-12-11T05:39:03.357Z,84.40
2018-12-11T05:41:31.737Z,85.00
2018-12-11T05:44:00.095Z,85.00
2018-12-11T05:46:28.416Z,85.40
2018-12-11T05:48:56.827Z,84.80
2018-12-11T05:51:31.548Z,84.60
2018-12-11T05:54:05.424Z,85.00
2018-12-11T05:56:35.777Z,84.60
2018-12-11T05:59:04.598Z,84.00
2018-12-11T06:01:33.026Z,84.60
2018-12-11T06:04:01.395Z,84.20
2018-12-11T06:06:29.936Z,84.80
2018-12-11T06:09:07.358Z,84.80
2018-12-11T06:11:40.507Z,84.60
2018-12-11T06:14:19.165Z,84.60
2018-12-11T06:16:47.610Z,82.80
2018-12-11T06:19:17.227Z,82.40
2018-12-11T06:21:45.568Z,82.80
2018-12-11T06:24:13.891Z,83.60
2018-12-11T06:26:42.242Z,84.40
2018-12-11T06:29:10.560Z,82.80
2018-12-11T06:31:40.359Z,84.20
2018-12-11T06:34:16.209Z,85.80
2018-12-11T06:39:47.427Z,83.60
2018-12-11T06:42:24.376Z,84.40
2018-12-11T06:44:53.414Z,88.80
2018-12-11T06:47:22.429Z,84.20
2018-12-11T06:49:50.944Z,83.60
2018-12-11T06:52:26.425Z,85.00
2018-12-11T06:54:54.881Z,77.60
2018-12-11T06:57:23.788Z,83.20
2018-12-11T06:59:52.582Z,78.00
2018-12-11T07:02:21.797Z,84.60
2018-12-11T07:04:50.308Z,84.00
2018-12-11T07:07:19.552Z,83.80
2018-12-11T07:09:47.986Z,84.80
2018-12-11T07:12:16.411Z,87.00
2018-12-11T07:14:48.803Z,89.00
2018-12-11T07:17:17.801Z,84.20
2018-12-11T07:19:46.176Z,84.20
2018-12-11T07:22:14.580Z,84.60
2018-12-11T07:24:49.016Z,84.40
2018-12-11T07:27:18.827Z,84.00
2018-12-11T07:29:49.029Z,84.00
2018-12-11T07:32:31.620Z,87.60
2018-12-11T07:35:04.477Z,82.40
2018-12-11T07:37:35.142Z,80.00
2018-12-11T07:40:04.796Z,82.00
2018-12-11T07:42:35.027Z,82.00
2018-12-11T07:45:07.044Z,85.60
2018-12-11T07:47:41.260Z,82.00
2018-12-11T07:50:10.168Z,87.60
2018-12-11T07:52:39.630Z,85.80
2018-12-11T07:55:15.226Z,84.80
2018-12-11T07:57:49.765Z,83.60
2018-12-11T08:00:18.552Z,85.40
2018-12-11T08:02:48.980Z,85.00
2018-12-11T08:05:20.440Z,87.80
2018-12-11T08:07:56.482Z,86.20
2018-12-11T08:13:24.147Z,86.20
2018-12-11T08:15:55.538Z,84.40
2018-12-11T08:18:32.780Z,93.40
2018-12-11T08:21:03.023Z,86.20
2018-12-11T08:23:45.941Z,90.20
2018-12-11T08:26:26.410Z,83.20
2018-12-11T08:28:56.487Z,81.40
2018-12-11T08:34:37.880Z,90.60
2018-12-11T08:37:13.101Z,83.60
2018-12-11T08:39:57.931Z,85.40
2018-12-11T08:42:39.216Z,84.20
2018-12-11T08:47:09.937Z,101.20
2018-12-11T08:49:40.342Z,92.20
2018-12-11T08:52:10.728Z,87.20
2018-12-11T08:54:49.903Z,84.40
2018-12-11T08:57:22.203Z,84.60
2018-12-11T08:59:51.566Z,85.20
2018-12-11T09:02:20.241Z,87.00
2018-12-11T09:04:51.283Z,89.60
2018-12-11T09:07:22.203Z,91.60
2018-12-11T09:09:52.267Z,86.60
2018-12-11T09:12:25.361Z,88.80
2018-12-11T09:15:01.766Z,89.20
2018-12-11T09:17:30.697Z,87.80
2018-12-11T09:20:01.367Z,89.60
2018-12-11T09:33:21.207Z,102.00
2018-12-11T09:35:59.496Z,99.40
2018-12-11T09:38:35.683Z,99.40
2018-12-11T09:41:11.269Z,100.00
2018-12-11T09:43:45.654Z,99.80
2018-12-11T09:51:58.468Z,101.60
2018-12-11T10:00:27.806Z,97.40
2018-12-11T10:03:08.293Z,97.40
2018-12-11T10:05:56.670Z,99.20
2018-12-11T10:14:28.429Z,100.80
2018-12-11T10:31:32.509Z,117.00
2018-12-11T10:34:09.518Z,106.00
2018-12-11T10:39:42.618Z,104.60
2018-12-11T10:45:23.262Z,118.00
2018-12-11T12:18:47.254Z,100.00
2018-12-11T12:24:14.668Z,78.20
2018-12-11T12:35:35.289Z,101.20
2018-12-11T12:38:16.292Z,103.20
2018-12-11T12:52:50.062Z,99.60
2018-12-11T13:43:33.204Z,99.80
2018-12-11T15:05:12.764Z,99.20
2018-12-11T15:07:57.564Z,96.60
2018-12-11T15:24:47.257Z,96.40
2018-12-11T15:38:47.033Z,96.60
2018-12-11T15:41:34.467Z,99.20
2018-12-11T16:09:41.464Z,96.80
2018-12-11T16:12:32.062Z,95.80
2018-12-11T16:15:11.708Z,94.00
2018-12-11T16:33:21.581Z,94.00
2018-12-11T17:39:21.793Z,102.60
2018-12-11T17:42:39.955Z,97.00
2018-12-11T17:45:30.124Z,97.40
2018-12-11T17:51:01.912Z,97.80
2018-12-11T17:56:31.084Z,96.60
2018-12-11T18:11:03.209Z,96.00
2018-12-11T18:28:06.781Z,96.00
2018-12-11T20:55:42.677Z,88.40
2018-12-11T21:18:15.297Z,88.60
2018-12-11T21:20:52.754Z,86.60
2018-12-11T21:23:31.325Z,85.00
2018-12-11T21:26:07.833Z,85.00
2018-12-11T21:28:42.221Z,86.20
2018-12-11T21:31:16.608Z,85.00
2018-12-11T21:33:48.575Z,85.80
2018-12-11T21:36:23.656Z,85.00
2018-12-11T21:38:57.623Z,85.40
2018-12-11T21:41:33.227Z,86.20
2018-12-11T21:44:08.282Z,85.00
2018-12-11T21:46:44.640Z,83.40
2018-12-11T21:49:19.243Z,86.20
2018-12-11T21:51:53.907Z,84.40
2018-12-11T21:54:28.659Z,85.80
2018-12-11T21:57:02.024Z,84.00
2018-12-11T21:59:34.471Z,87.40
2018-12-11T22:02:10.627Z,89.20
2018-12-11T22:04:46.708Z,87.60
2018-12-11T22:07:23.189Z,88.60
2018-12-11T22:09:57.775Z,87.00
2018-12-11T22:12:33.695Z,84.20
2018-12-11T22:15:08.465Z,84.60
2018-12-11T22:17:44.449Z,84.00
2018-12-11T22:20:18.780Z,84.40
2018-12-11T22:22:53.021Z,84.80
2018-12-11T22:25:27.581Z,85.40
2018-12-11T22:28:01.870Z,83.60
2018-12-11T22:30:38.097Z,84.40
2018-12-11T22:33:12.124Z,81.80
2018-12-11T22:35:46.452Z,84.20
2018-12-11T22:38:21.265Z,84.20
2018-12-11T22:41:50.070Z,99.20
2018-12-11T22:44:25.238Z,91.80
2018-12-11T22:47:00.192Z,84.60
2018-12-11T22:49:37.798Z,84.40
2018-12-11T22:52:12.697Z,83.60
2018-12-11T22:54:46.825Z,82.00
2018-12-11T22:57:21.255Z,82.00
2018-12-11T22:59:56.053Z,84.00
2018-12-11T23:02:27.801Z,84.00
2018-12-11T23:04:58.335Z,80.80
2018-12-11T23:07:32.138Z,79.00
2018-12-11T23:10:07.270Z,82.80
2018-12-11T23:12:39.021Z,81.80
2018-12-11T23:15:09.412Z,87.00
2018-12-11T23:17:43.826Z,82.00
2018-12-11T23:20:21.963Z,79.00
2018-12-11T23:22:56.347Z,80.60
2018-12-11T23:28:29.288Z,78.40
2018-12-11T23:31:09.242Z,78.00
2018-12-11T23:33:43.838Z,79.00
2018-12-11T23:36:19.807Z,78.80
2018-12-11T23:38:58.627Z,78.40
2018-12-11T23:41:32.954Z,79.00
2018-12-11T23:44:09.384Z,79.00
2018-12-11T23:46:44.093Z,81.20
2018-12-11T23:49:21.379Z,78.60
2018-12-11T23:51:53.724Z,79.40
2018-12-11T23:54:28.943Z,81.80
2018-12-11T23:57:03.953Z,79.00
2018-12-11T23:59:43.174Z,78.40
